createdAt,value
2023-05-13T00:00:48.971Z,1.30
2023-05-13T00:03:17.254Z,1.50
2023-05-13T00:05:47.107Z,1.38
2023-05-13T00:08:15.808Z,1.63
2023-05-13T00:10:44.364Z,1.60
2023-05-13T00:13:13.026Z,1.45
2023-05-13T00:15:42.153Z,1.23
2023-05-13T00:18:10.918Z,1.40
2023-05-13T00:20:39.591Z,1.30
2023-05-13T00:23:09.285Z,1.60
2023-05-13T00:25:37.610Z,1.35
2023-05-13T00:28:06.928Z,1.77
2023-05-13T00:30:35.348Z,1.50
2023-05-13T00:33:04.262Z,1.60
2023-05-13T00:35:33.037Z,1.70
2023-05-13T00:38:01.678Z,1.85
2023-05-13T00:40:30.235Z,1.70
2023-05-13T00:42:59.057Z,1.40
2023-05-13T00:45:27.642Z,1.40
2023-05-13T00:47:56.355Z,1.60
2023-05-13T00:50:24.983Z,1.20
2023-05-13T00:52:53.285Z,1.50
2023-05-13T00:55:21.998Z,1.42
2023-05-13T00:57:50.326Z,1.40
2023-05-13T01:00:20.560Z,1.40
2023-05-13T01:03:04.520Z,1.42
2023-05-13T01:05:47.580Z,1.10
2023-05-13T01:08:22.116Z,1.60
2023-05-13T01:11:16.428Z,1.48
2023-05-13T01:13:48.502Z,1.60
2023-05-13T01:16:34.239Z,1.65
2023-05-13T01:19:19.409Z,1.45
2023-05-13T01:21:57.203Z,1.70
2023-05-13T01:24:25.885Z,1.10
2023-05-13T01:26:54.609Z,1.65
2023-05-13T01:29:23.178Z,1.20
2023-05-13T01:31:53.599Z,1.38
2023-05-13T01:34:23.246Z,1.50
2023-05-13T01:36:51.613Z,1.45
2023-05-13T01:39:21.581Z,1.90
2023-05-13T01:41:50.427Z,1.48
2023-05-13T01:44:19.917Z,1.30
2023-05-13T01:46:51.661Z,1.58
2023-05-13T01:49:21.230Z,2.00
2023-05-13T01:51:49.798Z,1.45
2023-05-13T01:54:18.467Z,2.20
2023-05-13T01:56:46.922Z,1.48
2023-05-13T01:59:16.208Z,1.52
2023-05-13T02:01:46.116Z,1.80
2023-05-13T02:04:14.776Z,1.88
2023-05-13T02:06:43.424Z,1.70
2023-05-13T02:09:12.144Z,1.60
2023-05-13T02:11:42.216Z,1.73
2023-05-13T02:14:11.745Z,1.75
2023-05-13T02:16:40.467Z,2.00
2023-05-13T02:19:09.204Z,1.73
2023-05-13T02:21:38.889Z,1.80
2023-05-13T02:24:07.435Z,2.05
2023-05-13T02:26:36.119Z,1.52
2023-05-13T02:29:05.043Z,1.70
2023-05-13T02:31:33.628Z,2.17
2023-05-13T02:34:02.356Z,1.50
2023-05-13T02:36:31.163Z,2.70
2023-05-13T02:38:59.770Z,2.00
2023-05-13T02:41:28.441Z,1.67
2023-05-13T02:43:56.825Z,1.70
2023-05-13T02:46:26.469Z,1.70
2023-05-13T02:48:55.216Z,1.80
2023-05-13T02:51:23.695Z,1.60
2023-05-13T02:53:53.798Z,2.22
2023-05-13T02:56:22.150Z,2.33
2023-05-13T02:58:51.550Z,2.58
2023-05-13T03:01:19.676Z,2.78
2023-05-13T03:03:48.495Z,3.03
2023-05-13T03:06:17.101Z,3.60
2023-05-13T03:08:45.341Z,3.78
2023-05-13T03:11:13.950Z,2.92
2023-05-13T03:13:42.644Z,2.20
2023-05-13T03:16:11.438Z,2.45
2023-05-13T03:18:39.665Z,2.63
2023-05-13T03:21:07.922Z,2.55
2023-05-13T03:23:36.574Z,2.13
2023-05-13T03:26:04.702Z,2.30
2023-05-13T03:28:34.369Z,2.65
2023-05-13T03:31:03.020Z,2.60
2023-05-13T03:33:31.670Z,3.50
2023-05-13T03:36:00.484Z,3.47
2023-05-13T03:38:29.308Z,3.35
2023-05-13T03:40:57.659Z,2.92
2023-05-13T03:43:26.067Z,3.80
2023-05-13T03:45:54.679Z,2.67
2023-05-13T03:48:23.129Z,3.00
2023-05-13T03:50:51.764Z,4.00
2023-05-13T03:53:20.581Z,7.95
2023-05-13T03:55:49.563Z,8.10
2023-05-13T03:58:18.656Z,8.30
2023-05-13T04:00:48.369Z,3.20
2023-05-13T04:03:18.450Z,8.18
2023-05-13T04:05:50.740Z,3.45
2023-05-13T04:08:19.330Z,2.75
2023-05-13T04:10:47.972Z,2.63
2023-05-13T04:13:16.576Z,2.72
2023-05-13T04:15:45.172Z,2.25
2023-05-13T04:18:14.024Z,2.50
2023-05-13T04:20:42.432Z,2.50
2023-05-13T04:23:11.424Z,2.13
2023-05-13T04:25:40.055Z,2.60
2023-05-13T04:28:09.803Z,2.28
2023-05-13T04:30:38.461Z,2.40
2023-05-13T04:33:07.643Z,2.60
2023-05-13T04:35:36.393Z,2.50
2023-05-13T04:38:05.512Z,2.63
2023-05-13T04:40:34.174Z,2.38
2023-05-13T04:43:02.199Z,3.00
2023-05-13T04:45:31.387Z,2.40
2023-05-13T04:47:59.599Z,2.42
2023-05-13T04:50:28.411Z,2.60
2023-05-13T04:52:57.735Z,2.75
2023-05-13T04:55:27.782Z,2.63
2023-05-13T04:57:56.545Z,2.90
2023-05-13T05:00:26.150Z,2.67
2023-05-13T05:02:55.954Z,2.83
2023-05-13T05:05:24.843Z,2.75
2023-05-13T05:07:53.099Z,2.95
2023-05-13T05:10:22.043Z,3.00
2023-05-13T05:12:50.863Z,2.95
2023-05-13T05:15:19.431Z,3.00
2023-05-13T05:17:48.207Z,3.17
2023-05-13T05:20:17.051Z,3.40
2023-05-13T05:22:45.378Z,3.33
2023-05-13T05:25:14.023Z,3.70
2023-05-13T05:27:42.749Z,3.50
2023-05-13T05:30:12.181Z,3.55
2023-05-13T05:32:40.366Z,3.60
2023-05-13T05:35:10.179Z,3.80
2023-05-13T05:37:38.715Z,3.70
2023-05-13T05:40:07.665Z,3.90
2023-05-13T05:42:36.244Z,4.15
2023-05-13T05:45:05.101Z,4.28
2023-05-13T05:47:33.719Z,4.10
2023-05-13T05:50:02.480Z,4.45
2023-05-13T05:52:31.226Z,4.55
2023-05-13T05:54:59.838Z,4.95
2023-05-13T05:57:28.164Z,4.47
2023-05-13T05:59:57.015Z,4.57
2023-05-13T06:02:25.467Z,4.68
2023-05-13T06:04:54.064Z,4.45
2023-05-13T06:07:22.407Z,5.05
2023-05-13T06:09:51.152Z,4.35
2023-05-13T06:12:19.773Z,5.38
2023-05-13T06:14:48.637Z,4.47
2023-05-13T06:17:17.547Z,4.72
2023-05-13T06:19:46.105Z,4.75
2023-05-13T06:22:14.982Z,4.18
2023-05-13T06:24:46.014Z,4.60
2023-05-13T06:27:15.023Z,3.95
2023-05-13T06:29:43.654Z,4.40
2023-05-13T06:32:12.290Z,4.72
2023-05-13T06:34:46.768Z,4.03
2023-05-13T06:37:15.584Z,4.53
2023-05-13T06:39:45.133Z,3.92
2023-05-13T06:42:14.392Z,4.35
2023-05-13T06:44:42.784Z,3.72
2023-05-13T06:47:17.369Z,3.72
2023-05-13T06:49:46.310Z,4.03
2023-05-13T06:52:14.577Z,4.05
2023-05-13T06:54:43.264Z,4.22
2023-05-13T06:57:11.685Z,4.38
2023-05-13T06:59:40.748Z,3.90
2023-05-13T07:02:11.104Z,3.92
2023-05-13T07:04:39.824Z,3.72
2023-05-13T07:07:08.434Z,3.65
2023-05-13T07:09:37.041Z,3.70
2023-05-13T07:12:05.856Z,3.70
2023-05-13T07:14:34.434Z,3.72
2023-05-13T07:17:03.613Z,3.58
2023-05-13T07:19:33.594Z,3.70
2023-05-13T07:22:03.085Z,3.45
2023-05-13T07:24:32.624Z,3.33
2023-05-13T07:27:02.698Z,3.63
2023-05-13T07:29:33.303Z,3.22
2023-05-13T07:32:08.383Z,3.20
2023-05-13T07:34:36.981Z,3.13
2023-05-13T07:37:05.531Z,2.80
2023-05-13T07:39:34.147Z,2.72
2023-05-13T07:42:03.604Z,3.00
2023-05-13T07:44:32.262Z,2.97
2023-05-13T07:47:00.541Z,3.15
2023-05-13T07:49:29.145Z,3.00
2023-05-13T07:51:57.699Z,2.95
2023-05-13T07:54:26.374Z,2.70
2023-05-13T07:56:54.919Z,2.70
2023-05-13T07:59:24.259Z,3.05
2023-05-13T08:01:53.272Z,2.85
2023-05-13T08:04:22.037Z,2.97
2023-05-13T08:06:50.774Z,3.00
2023-05-13T08:09:18.924Z,2.90
2023-05-13T08:11:47.522Z,3.00
2023-05-13T08:14:16.271Z,3.05
2023-05-13T08:16:44.990Z,3.00
2023-05-13T08:19:15.467Z,3.22
2023-05-13T08:21:44.222Z,3.00
2023-05-13T08:24:12.754Z,3.08
2023-05-13T08:26:41.153Z,3.05
2023-05-13T08:29:14.136Z,3.10
2023-05-13T08:31:43.484Z,2.63
2023-05-13T08:34:12.009Z,3.08
2023-05-13T08:36:40.656Z,2.80
2023-05-13T08:39:09.385Z,2.85
2023-05-13T08:41:39.716Z,2.90
2023-05-13T08:44:10.538Z,2.80
2023-05-13T08:46:40.456Z,3.30
2023-05-13T08:49:10.849Z,3.20
2023-05-13T08:51:39.166Z,3.10
2023-05-13T08:54:11.999Z,2.83
2023-05-13T08:56:40.442Z,3.60
2023-05-13T08:59:09.196Z,3.65
2023-05-13T09:01:37.587Z,3.50
2023-05-13T09:04:10.934Z,4.07
2023-05-13T09:06:39.775Z,3.80
2023-05-13T09:09:08.629Z,3.85
2023-05-13T09:11:37.101Z,3.40
2023-05-13T09:14:08.533Z,4.05
2023-05-13T09:16:37.764Z,3.95
2023-05-13T09:19:08.217Z,3.53
2023-05-13T09:21:37.619Z,3.75
2023-05-13T09:24:14.864Z,3.42
2023-05-13T09:26:44.122Z,3.05
2023-05-13T09:29:27.288Z,3.58
2023-05-13T09:31:58.075Z,3.55
2023-05-13T09:34:34.957Z,3.78
2023-05-13T09:37:18.975Z,4.28
2023-05-13T09:39:47.514Z,4.20
2023-05-13T09:42:20.024Z,4.93
2023-05-13T09:44:51.162Z,5.07
2023-05-13T09:47:19.739Z,4.93
2023-05-13T09:49:58.847Z,5.30
2023-05-13T09:52:27.410Z,4.90
2023-05-13T09:54:58.793Z,4.97
2023-05-13T09:57:30.560Z,5.00
2023-05-13T10:00:02.153Z,5.03
2023-05-13T10:02:30.827Z,4.15
2023-05-13T10:05:00.358Z,4.47
2023-05-13T10:07:30.918Z,3.75
2023-05-13T10:10:03.298Z,4.18
2023-05-13T10:12:33.902Z,4.20
2023-05-13T10:15:04.022Z,3.80
2023-05-13T10:17:34.129Z,3.53
2023-05-13T10:20:03.185Z,3.92
2023-05-13T10:22:35.893Z,3.55
2023-05-13T10:25:06.448Z,3.75
2023-05-13T10:27:35.410Z,3.22
2023-05-13T10:30:06.710Z,3.40
2023-05-13T10:32:36.462Z,3.88
2023-05-13T10:35:13.913Z,3.25
2023-05-13T10:37:51.426Z,3.42
2023-05-13T10:40:32.334Z,3.20
2023-05-13T10:43:22.387Z,3.20
2023-05-13T10:45:53.363Z,3.20
2023-05-13T10:48:22.084Z,3.60
2023-05-13T10:51:09.788Z,3.22
2023-05-13T10:53:45.940Z,3.90
2023-05-13T10:56:14.428Z,3.38
2023-05-13T10:58:43.058Z,3.50
2023-05-13T11:01:30.823Z,3.50
2023-05-13T11:04:02.573Z,3.38
2023-05-13T11:06:45.692Z,3.22
2023-05-13T11:09:31.293Z,2.92
2023-05-13T11:12:03.622Z,3.22
2023-05-13T11:14:33.263Z,3.20
2023-05-13T11:17:05.693Z,3.35
2023-05-13T11:19:37.797Z,3.00
2023-05-13T11:22:19.677Z,3.45
2023-05-13T11:25:04.893Z,3.45
2023-05-13T11:27:39.985Z,3.55
2023-05-13T11:30:22.982Z,3.20
2023-05-13T11:32:59.675Z,3.33
2023-05-13T11:35:33.538Z,3.00
2023-05-13T11:38:04.320Z,3.63
2023-05-13T11:40:37.980Z,3.40
2023-05-13T11:43:07.502Z,3.20
2023-05-13T11:45:41.460Z,3.15
2023-05-13T11:48:31.513Z,3.00
2023-05-13T11:50:59.830Z,3.28
2023-05-13T11:53:29.038Z,3.10
2023-05-13T11:55:57.746Z,2.97
2023-05-13T11:58:26.408Z,2.95
2023-05-13T12:00:56.779Z,3.30
2023-05-13T12:03:25.394Z,2.70
2023-05-13T12:06:05.214Z,3.40
2023-05-13T12:08:33.890Z,2.72
2023-05-13T12:11:02.241Z,3.10
2023-05-13T12:13:30.936Z,3.47
2023-05-13T12:15:59.960Z,3.28
2023-05-13T12:18:28.652Z,3.13
2023-05-13T12:20:57.369Z,3.05
2023-05-13T12:23:25.857Z,3.10
2023-05-13T12:25:55.357Z,3.15
2023-05-13T12:28:26.519Z,3.17
2023-05-13T12:31:00.478Z,3.60
2023-05-13T12:33:48.331Z,3.10
2023-05-13T12:36:22.890Z,3.35
2023-05-13T12:39:11.597Z,3.20
2023-05-13T12:41:51.800Z,2.70
2023-05-13T12:44:20.578Z,3.10
2023-05-13T12:46:53.226Z,2.90
2023-05-13T12:49:22.557Z,3.00
2023-05-13T12:51:53.053Z,2.92
2023-05-13T12:54:21.720Z,3.20
2023-05-13T12:56:51.262Z,2.97
2023-05-13T12:59:20.600Z,3.45
2023-05-13T13:01:51.110Z,3.05
2023-05-13T13:04:20.417Z,3.30
2023-05-13T13:06:50.004Z,3.22
2023-05-13T13:09:18.549Z,3.00
2023-05-13T13:11:46.485Z,3.10
2023-05-13T13:14:15.550Z,3.20
2023-05-13T13:16:44.140Z,2.75
2023-05-13T13:19:12.779Z,3.08
2023-05-13T13:21:41.148Z,3.35
2023-05-13T13:24:09.762Z,3.10
2023-05-13T13:26:38.351Z,3.25
2023-05-13T13:29:06.327Z,2.80
2023-05-13T13:31:35.033Z,2.95
2023-05-13T13:34:06.211Z,3.30
2023-05-13T13:36:34.454Z,3.55
2023-05-13T13:39:03.033Z,3.33
2023-05-13T13:41:31.658Z,3.70
2023-05-13T13:44:00.265Z,3.28
2023-05-13T13:46:28.723Z,3.40
2023-05-13T13:48:57.278Z,3.45
2023-05-13T13:51:25.851Z,3.58
2023-05-13T13:53:54.393Z,3.40
2023-05-13T13:56:23.721Z,3.28
2023-05-13T13:58:52.991Z,3.40
2023-05-13T14:01:21.982Z,4.05
2023-05-13T14:03:55.469Z,3.50
2023-05-13T14:06:24.154Z,4.40
2023-05-13T14:08:53.195Z,3.85
2023-05-13T14:11:21.770Z,3.58
2023-05-13T14:13:50.371Z,3.35
2023-05-13T14:16:18.628Z,3.67
2023-05-13T14:18:47.365Z,3.33
2023-05-13T14:21:15.473Z,3.38
2023-05-13T14:23:44.280Z,3.00
2023-05-13T14:26:14.580Z,2.83
2023-05-13T14:28:46.982Z,2.60
2023-05-13T14:31:15.849Z,3.30
2023-05-13T14:33:44.065Z,3.50
2023-05-13T14:36:16.653Z,3.78
2023-05-13T14:38:45.408Z,3.33
2023-05-13T14:41:20.942Z,2.70
2023-05-13T14:43:50.009Z,3.20
2023-05-13T14:46:19.120Z,2.40
2023-05-13T14:48:47.724Z,2.47
2023-05-13T14:51:16.453Z,2.88
2023-05-13T14:53:45.084Z,2.63
2023-05-13T14:56:14.025Z,2.53
2023-05-13T14:58:42.751Z,2.30
2023-05-13T15:01:11.321Z,2.38
2023-05-13T15:03:40.001Z,2.38
2023-05-13T15:06:09.335Z,2.50
2023-05-13T15:08:38.879Z,2.42
2023-05-13T15:11:07.780Z,2.70
2023-05-13T15:13:38.196Z,2.47
2023-05-13T15:16:08.063Z,2.30
2023-05-13T15:18:36.573Z,2.17
2023-05-13T15:21:05.136Z,2.28
2023-05-13T15:23:35.003Z,2.40
2023-05-13T15:26:04.475Z,2.13
2023-05-13T15:28:33.075Z,2.03
2023-05-13T15:31:01.799Z,1.80
2023-05-13T15:33:31.438Z,1.98
2023-05-13T15:36:00.742Z,1.90
2023-05-13T15:38:29.772Z,1.65
2023-05-13T15:41:00.165Z,1.80
2023-05-13T15:43:29.003Z,1.95
2023-05-13T15:45:57.740Z,1.80
2023-05-13T15:48:26.846Z,1.90
2023-05-13T15:50:56.198Z,1.83
2023-05-13T15:53:24.962Z,2.08
2023-05-13T15:55:53.676Z,2.08
2023-05-13T15:58:21.863Z,1.80
2023-05-13T16:00:50.481Z,2.00
2023-05-13T16:03:18.887Z,2.08
2023-05-13T16:05:48.045Z,2.15
2023-05-13T16:08:16.869Z,1.70
2023-05-13T16:10:45.446Z,2.05
2023-05-13T16:13:13.989Z,1.83
2023-05-13T16:15:42.621Z,1.80
2023-05-13T16:18:11.203Z,1.65
2023-05-13T16:20:39.465Z,1.90
2023-05-13T16:23:07.687Z,1.40
2023-05-13T16:25:36.315Z,1.58
2023-05-13T16:28:05.098Z,1.40
2023-05-13T16:30:33.703Z,1.60
2023-05-13T16:33:02.374Z,1.45
2023-05-13T16:35:31.161Z,1.30
2023-05-13T16:37:59.915Z,1.40
2023-05-13T16:40:28.069Z,1.30
2023-05-13T16:42:59.298Z,1.38
2023-05-13T16:45:29.616Z,1.40
2023-05-13T16:47:58.614Z,1.48
2023-05-13T16:50:27.585Z,1.30
2023-05-13T16:52:57.018Z,1.40
2023-05-13T16:55:27.424Z,1.50
2023-05-13T16:57:55.991Z,1.70
2023-05-13T17:00:25.010Z,1.10
2023-05-13T17:02:53.560Z,1.40
2023-05-13T17:05:21.826Z,1.13
2023-05-13T17:07:50.004Z,1.30
2023-05-13T17:10:18.595Z,1.50
2023-05-13T17:12:47.138Z,1.20
2023-05-13T17:15:15.783Z,1.45
2023-05-13T17:17:44.376Z,1.60
2023-05-13T17:20:13.651Z,1.70
2023-05-13T17:22:47.781Z,1.30
2023-05-13T17:25:16.241Z,1.30
2023-05-13T17:27:44.954Z,1.27
2023-05-13T17:30:14.242Z,1.45
2023-05-13T17:32:43.111Z,1.30
2023-05-13T17:35:12.259Z,1.30
2023-05-13T17:37:41.004Z,1.10
2023-05-13T17:40:10.410Z,1.38
2023-05-13T17:42:39.074Z,1.60
2023-05-13T17:45:08.181Z,1.25
2023-05-13T17:47:36.920Z,1.20
2023-05-13T17:50:05.852Z,1.38
2023-05-13T17:52:34.365Z,1.40
2023-05-13T17:55:02.903Z,1.27
2023-05-13T17:57:33.250Z,1.27
2023-05-13T18:00:01.839Z,1.60
2023-05-13T18:02:30.384Z,1.30
2023-05-13T18:04:59.073Z,1.30
2023-05-13T18:07:27.722Z,1.15
2023-05-13T18:09:56.352Z,1.23
2023-05-13T18:12:24.907Z,1.42
2023-05-13T18:14:53.756Z,1.70
2023-05-13T18:17:22.604Z,1.33
2023-05-13T18:19:51.210Z,1.80
2023-05-13T18:22:19.852Z,1.42
2023-05-13T18:24:48.881Z,1.30
2023-05-13T18:27:17.446Z,1.30
2023-05-13T18:29:46.015Z,1.83
2023-05-13T18:32:14.647Z,1.58
2023-05-13T18:34:43.222Z,6.68
2023-05-13T18:37:11.530Z,1.50
2023-05-13T18:39:40.126Z,1.50
2023-05-13T18:42:08.938Z,1.60
2023-05-13T18:44:37.623Z,1.40
2023-05-13T18:47:07.589Z,1.70
2023-05-13T18:49:36.280Z,1.30
2023-05-13T18:52:04.881Z,1.30
2023-05-13T18:54:34.426Z,1.40
2023-05-13T18:57:03.176Z,1.70
2023-05-13T18:59:31.787Z,1.45
2023-05-13T19:02:00.856Z,1.40
2023-05-13T19:04:29.884Z,1.60
2023-05-13T19:06:58.676Z,1.40
2023-05-13T19:09:27.232Z,1.80
2023-05-13T19:11:55.838Z,1.70
2023-05-13T19:14:24.476Z,2.00
2023-05-13T19:16:53.219Z,1.20
2023-05-13T19:19:21.966Z,1.45
2023-05-13T19:21:50.554Z,1.20
2023-05-13T19:24:19.170Z,1.58
2023-05-13T19:26:47.758Z,1.20
2023-05-13T19:29:16.163Z,1.35
2023-05-13T19:31:44.837Z,1.65
2023-05-13T19:34:13.471Z,1.30
2023-05-13T19:36:42.174Z,1.40
2023-05-13T19:39:11.608Z,1.50
2023-05-13T19:41:39.812Z,1.52
2023-05-13T19:44:08.782Z,1.30
2023-05-13T19:46:37.504Z,1.48
2023-05-13T19:49:06.139Z,1.70
2023-05-13T19:51:34.520Z,1.63
2023-05-13T19:54:02.910Z,1.30
2023-05-13T19:56:31.907Z,1.27
2023-05-13T19:59:00.645Z,1.25
2023-05-13T20:01:29.634Z,1.10
2023-05-13T20:03:58.329Z,1.30
2023-05-13T20:06:27.848Z,1.45
2023-05-13T20:08:56.451Z,1.50
2023-05-13T20:11:25.032Z,1.20
2023-05-13T20:13:53.835Z,1.35
2023-05-13T20:16:23.404Z,1.70
2023-05-13T20:18:52.194Z,1.40
2023-05-13T20:21:20.801Z,1.38
2023-05-13T20:23:49.107Z,1.42
2023-05-13T20:26:17.789Z,1.20
2023-05-13T20:28:49.089Z,1.10
2023-05-13T20:31:19.238Z,1.93
2023-05-13T20:33:47.896Z,1.33
2023-05-13T20:36:16.104Z,1.55
2023-05-13T20:38:44.643Z,1.13
2023-05-13T20:41:13.282Z,1.30
2023-05-13T20:43:41.964Z,1.20
2023-05-13T20:46:11.348Z,1.42
2023-05-13T20:48:39.445Z,1.95
2023-05-13T20:51:08.301Z,1.30
2023-05-13T20:53:37.749Z,1.38
2023-05-13T20:56:06.293Z,1.25
2023-05-13T20:58:34.905Z,1.40
2023-05-13T21:01:04.004Z,1.50
2023-05-13T21:03:34.452Z,1.23
2023-05-13T21:06:03.079Z,1.00
2023-05-13T21:08:31.747Z,1.45
2023-05-13T21:11:00.491Z,1.50
2023-05-13T21:13:28.875Z,1.33
2023-05-13T21:15:58.785Z,1.10
2023-05-13T21:18:27.703Z,1.38
2023-05-13T21:20:56.312Z,1.00
2023-05-13T21:23:24.216Z,1.45
2023-05-13T21:25:52.836Z,1.30
2023-05-13T21:28:21.381Z,1.20
2023-05-13T21:30:49.972Z,1.33
2023-05-13T21:33:18.578Z,1.40
2023-05-13T21:35:47.184Z,1.67
2023-05-13T21:38:15.711Z,1.10
2023-05-13T21:40:45.338Z,1.52
2023-05-13T21:43:14.008Z,1.40
2023-05-13T21:45:42.692Z,1.52
2023-05-13T21:48:11.060Z,1.48
2023-05-13T21:50:39.783Z,1.30
2023-05-13T21:53:08.424Z,1.50
2023-05-13T21:55:36.677Z,1.50
2023-05-13T21:58:04.906Z,1.60
2023-05-13T22:00:33.820Z,1.40
2023-05-13T22:03:02.983Z,1.45
2023-05-13T22:05:31.691Z,1.45
2023-05-13T22:08:01.450Z,1.40
2023-05-13T22:10:31.553Z,1.50
2023-05-13T22:13:00.149Z,1.50
2023-05-13T22:15:28.806Z,1.48
2023-05-13T22:17:57.114Z,1.50
2023-05-13T22:20:26.085Z,1.50
2023-05-13T22:22:54.825Z,1.35
2023-05-13T22:25:23.215Z,1.60
2023-05-13T22:27:52.829Z,1.55
2023-05-13T22:30:21.257Z,1.40
2023-05-13T22:32:52.660Z,1.60
2023-05-13T22:35:21.445Z,1.50
2023-05-13T22:37:51.873Z,1.90
2023-05-13T22:40:20.674Z,2.35
2023-05-13T22:42:49.448Z,1.92
2023-05-13T22:45:19.051Z,1.73
2023-05-13T22:47:47.882Z,1.90
2023-05-13T22:50:16.112Z,1.42
2023-05-13T22:52:44.764Z,1.70
2023-05-13T22:55:12.912Z,1.60
2023-05-13T22:57:41.643Z,1.60
2023-05-13T23:00:10.317Z,1.58
2023-05-13T23:02:38.465Z,1.77
2023-05-13T23:05:07.281Z,1.73
2023-05-13T23:07:35.879Z,1.60
2023-05-13T23:10:04.527Z,1.60
2023-05-13T23:12:34.760Z,1.73
2023-05-13T23:15:03.150Z,1.70
2023-05-13T23:17:32.073Z,1.88
2023-05-13T23:20:00.707Z,1.90
2023-05-13T23:22:29.324Z,1.80
2023-05-13T23:24:57.937Z,1.80
2023-05-13T23:27:26.360Z,1.60
2023-05-13T23:29:55.011Z,1.88
2023-05-13T23:32:23.569Z,1.90
2023-05-13T23:34:52.994Z,1.95
2023-05-13T23:37:23.226Z,1.80
2023-05-13T23:39:51.809Z,2.33
2023-05-13T23:42:20.683Z,2.03
2023-05-13T23:44:49.277Z,1.90
2023-05-13T23:47:18.094Z,2.20
2023-05-13T23:49:46.268Z,2.42
2023-05-13T23:52:14.568Z,2.08
2023-05-13T23:54:43.136Z,2.20
2023-05-13T23:57:11.748Z,2.10
2023-05-13T23:59:40.353Z,2.30
